Time;durP1;ratioP1;P1;durP2;ratioP2;P2;SDS_P1;SDS_P2;PMS_P1;PMS_P2;Temp;Humidity;BMP_temperature;BMP_pressure;BME280_temperature;BME280_humidity;BME280_pressure;Samples;Min_cycle;Max_cycle;Signal;HPM_P1;HPM_P2
2021/03/31 00:00:58;;;;;;;25.83;17.53;;;;;;;;;;5094299;28;20534;-65
2021/03/31 00:03:25;;;;;;;29.27;18.20;;;;;;;;;;5094601;28;20448;-65
2021/03/31 00:05:52;;;;;;;26.90;18.10;;;;;;;;;;5095290;28;20898;-65
2021/03/31 00:08:19;;;;;;;25.00;17.33;;;;;;;;;;5094500;28;20902;-65
2021/03/31 00:10:47;;;;;;;23.50;16.97;;;;;;;;;;5094449;28;20872;-65
2021/03/31 00:13:14;;;;;;;26.73;17.93;;;;;;;;;;5095186;28;20505;-66
2021/03/31 00:15:41;;;;;;;25.10;17.10;;;;;;;;;;5094266;28;20556;-65
2021/03/31 00:18:10;;;;;;;29.37;18.17;;;;;;;;;;5094285;28;20467;-66
2021/03/31 00:20:37;;;;;;;28.50;19.70;;;;;;;;;;5094518;28;20522;-65
2021/03/31 00:23:05;;;;;;;27.63;18.60;;;;;;;;;;5094201;28;20535;-65
2021/03/31 00:25:32;;;;;;;25.65;17.88;;;;;;;;;;5094139;28;20482;-65
2021/03/31 00:27:58;;;;;;;28.48;18.67;;;;;;;;;;5094734;28;20542;-65
2021/03/31 00:30:26;;;;;;;26.27;18.07;;;;;;;;;;5094011;28;20285;-65
2021/03/31 00:32:53;;;;;;;24.92;17.65;;;;;;;;;;5094353;28;20518;-65
2021/03/31 00:35:21;;;;;;;27.92;17.63;;;;;;;;;;5094059;28;20258;-65
2021/03/31 00:37:48;;;;;;;25.47;16.40;;;;;;;;;;5093660;28;20723;-65
2021/03/31 00:40:16;;;;;;;29.73;18.70;;;;;;;;;;5093682;28;20541;-65
2021/03/31 00:42:43;;;;;;;29.63;18.40;;;;;;;;;;5093931;28;20537;-66
2021/03/31 00:45:10;;;;;;;25.83;17.53;;;;;;;;;;5093571;28;20537;-65
2021/03/31 00:47:37;;;;;;;32.10;18.43;;;;;;;;;;5093843;28;20484;-65
2021/03/31 00:50:05;;;;;;;33.37;18.90;;;;;;;;;;5093145;28;20478;-66
2021/03/31 00:52:33;;;;;;;31.08;18.05;;;;;;;;;;5093533;28;20438;-65
2021/03/31 00:55:00;;;;;;;34.50;19.73;;;;;;;;;;5093780;28;20193;-65
2021/03/31 00:57:27;;;;;;;28.52;20.10;;;;;;;;;;5093456;28;20553;-65
2021/03/31 00:59:54;;;;;;;33.00;20.23;;;;;;;;;;5093435;28;20326;-65
2021/03/31 01:02:20;;;;;;;30.70;18.83;;;;;;;;;;5093649;28;20250;-65
2021/03/31 01:04:47;;;;;;;29.52;19.42;;;;;;;;;;5093642;28;20505;-65
2021/03/31 01:07:14;;;;;;;30.63;19.70;;;;;;;;;;5093369;28;20283;-65
2021/03/31 01:09:42;;;;;;;34.05;19.98;;;;;;;;;;5093659;28;20228;-65
2021/03/31 01:12:11;;;;;;;32.00;19.10;;;;;;;;;;5093993;28;20283;-65
2021/03/31 01:14:45;;;;;;;23.15;17.63;;;;;;;;;;5093579;28;20283;-65
2021/03/31 01:17:15;;;;;;;28.30;17.80;;;;;;;;;;5093399;28;20709;-66
2021/03/31 01:20:02;;;;;;;25.27;17.77;;;;;;;;;;5093551;28;20469;-65
2021/03/31 01:22:44;;;;;;;26.20;16.97;;;;;;;;;;5089790;28;20197;-65
2021/03/31 01:25:16;;;;;;;31.33;19.17;;;;;;;;;;5093244;28;20974;-66
2021/03/31 01:27:47;;;;;;;30.63;18.63;;;;;;;;;;5093210;28;20214;-65
2021/03/31 01:30:19;;;;;;;30.45;18.17;;;;;;;;;;5094050;28;20224;-66
2021/03/31 01:33:19;;;;;;;25.50;17.87;;;;;;;;;;5093536;28;20275;-66
2021/03/31 01:35:47;;;;;;;28.35;18.35;;;;;;;;;;5050643;28;20571;-65
2021/03/31 01:38:15;;;;;;;27.23;17.08;;;;;;;;;;5050997;28;20278;-66
2021/03/31 01:40:45;;;;;;;26.38;18.65;;;;;;;;;;5070865;28;20272;-66
2021/03/31 01:43:13;;;;;;;27.80;18.77;;;;;;;;;;5093047;28;20279;-66
2021/03/31 01:45:40;;;;;;;33.58;17.08;;;;;;;;;;5093353;28;20341;-65
2021/03/31 01:48:08;;;;;;;27.90;18.33;;;;;;;;;;5092941;28;20338;-65
2021/03/31 01:50:35;;;;;;;29.70;17.52;;;;;;;;;;5093636;28;20658;-65
2021/03/31 01:53:03;;;;;;;27.98;19.00;;;;;;;;;;5092998;28;20231;-65
2021/03/31 01:55:30;;;;;;;28.38;18.20;;;;;;;;;;5093701;28;20327;-65
2021/03/31 01:57:58;;;;;;;25.47;18.20;;;;;;;;;;5093585;28;20614;-65
2021/03/31 02:00:25;;;;;;;31.45;17.25;;;;;;;;;;5093747;28;20448;-65
2021/03/31 02:02:53;;;;;;;26.63;17.80;;;;;;;;;;5094582;28;20279;-65
2021/03/31 02:05:20;;;;;;;24.45;16.60;;;;;;;;;;5097310;28;20318;-65
2021/03/31 02:07:47;;;;;;;28.92;18.88;;;;;;;;;;5096835;28;20231;-65
2021/03/31 02:10:16;;;;;;;32.05;19.08;;;;;;;;;;5097399;28;20286;-65
2021/03/31 02:12:43;;;;;;;25.67;18.38;;;;;;;;;;5096811;28;20195;-65
2021/03/31 02:15:11;;;;;;;31.45;20.38;;;;;;;;;;5096301;28;20632;-66
2021/03/31 02:17:38;;;;;;;28.25;19.65;;;;;;;;;;5097079;28;20196;-64
2021/03/31 02:20:05;;;;;;;28.23;18.50;;;;;;;;;;5096620;28;20297;-64
2021/03/31 02:22:34;;;;;;;26.13;18.30;;;;;;;;;;5096560;28;20193;-65
2021/03/31 02:25:01;;;;;;;33.08;19.23;;;;;;;;;;5096545;28;20313;-65
2021/03/31 02:27:29;;;;;;;32.03;19.45;;;;;;;;;;5096876;28;20282;-65
2021/03/31 02:29:56;;;;;;;30.00;18.83;;;;;;;;;;5096417;28;20201;-65
2021/03/31 02:32:24;;;;;;;28.55;18.77;;;;;;;;;;5096053;28;20234;-65
2021/03/31 02:34:51;;;;;;;28.83;18.50;;;;;;;;;;5096267;28;20191;-65
2021/03/31 02:37:18;;;;;;;27.15;17.73;;;;;;;;;;5096420;28;20281;-65
2021/03/31 02:39:46;;;;;;;28.50;19.00;;;;;;;;;;5095966;28;20357;-65
2021/03/31 02:42:15;;;;;;;24.98;17.85;;;;;;;;;;5096202;28;20227;-65
2021/03/31 02:44:43;;;;;;;28.98;18.65;;;;;;;;;;5096167;28;20593;-65
2021/03/31 02:47:11;;;;;;;27.45;19.00;;;;;;;;;;5095783;28;20206;-65
2021/03/31 02:49:39;;;;;;;31.08;19.30;;;;;;;;;;5095726;28;20234;-65
2021/03/31 02:52:07;;;;;;;32.92;19.30;;;;;;;;;;5096016;28;20586;-65
2021/03/31 02:54:34;;;;;;;28.27;17.02;;;;;;;;;;5095654;28;20291;-66
2021/03/31 02:57:01;;;;;;;29.55;18.90;;;;;;;;;;5095475;28;20310;-65
2021/03/31 02:59:28;;;;;;;25.17;18.10;;;;;;;;;;5095563;28;20199;-65
2021/03/31 03:01:56;;;;;;;28.92;18.88;;;;;;;;;;5095487;28;20282;-65
2021/03/31 03:04:23;;;;;;;26.50;18.50;;;;;;;;;;5095455;28;20326;-65
2021/03/31 03:06:50;;;;;;;26.00;18.25;;;;;;;;;;5095384;28;20202;-65
2021/03/31 03:09:17;;;;;;;23.08;17.88;;;;;;;;;;5095354;28;20287;-65
2021/03/31 03:11:44;;;;;;;28.02;18.67;;;;;;;;;;5095608;28;20260;-65
2021/03/31 03:14:11;;;;;;;28.08;17.80;;;;;;;;;;5095535;28;20290;-65
2021/03/31 03:16:38;;;;;;;26.02;18.67;;;;;;;;;;5095463;28;20219;-65
2021/03/31 03:19:06;;;;;;;30.33;19.23;;;;;;;;;;5095471;28;20192;-64
2021/03/31 03:21:33;;;;;;;25.73;18.20;;;;;;;;;;5096105;28;20201;-64
2021/03/31 03:24:00;;;;;;;23.60;17.60;;;;;;;;;;5095082;28;20673;-65
2021/03/31 03:26:27;;;;;;;27.95;18.48;;;;;;;;;;5095075;28;20285;-64
2021/03/31 03:28:54;;;;;;;24.73;17.77;;;;;;;;;;5094938;28;20286;-64
2021/03/31 03:31:21;;;;;;;28.63;19.02;;;;;;;;;;5095165;28;20198;-64
2021/03/31 03:33:48;;;;;;;23.52;18.00;;;;;;;;;;5094809;28;20286;-64
2021/03/31 03:36:17;;;;;;;34.40;20.25;;;;;;;;;;5095274;28;20566;-64
2021/03/31 03:38:44;;;;;;;24.85;17.02;;;;;;;;;;5095271;28;20661;-64
2021/03/31 03:41:12;;;;;;;25.30;18.75;;;;;;;;;;5094838;28;20238;-64
2021/03/31 03:43:40;;;;;;;23.73;17.13;;;;;;;;;;5094725;28;20269;-65
2021/03/31 03:46:08;;;;;;;30.10;19.17;;;;;;;;;;5094936;28;20647;-64
2021/03/31 03:48:34;;;;;;;25.65;17.55;;;;;;;;;;5094925;28;20246;-64
2021/03/31 03:51:04;;;;;;;25.83;17.60;;;;;;;;;;5095257;28;20189;-64
2021/03/31 03:53:32;;;;;;;25.48;17.45;;;;;;;;;;5094945;28;20225;-63
2021/03/31 03:56:00;;;;;;;38.00;20.85;;;;;;;;;;5094231;28;20223;-63
2021/03/31 03:58:27;;;;;;;32.72;17.70;;;;;;;;;;5094560;28;20210;-63
2021/03/31 04:00:54;;;;;;;36.83;19.20;;;;;;;;;;5094370;28;20673;-64
2021/03/31 04:03:20;;;;;;;26.55;17.83;;;;;;;;;;5094587;28;20227;-64
2021/03/31 04:05:47;;;;;;;31.05;18.23;;;;;;;;;;5094511;28;20665;-64
2021/03/31 04:08:14;;;;;;;31.90;16.63;;;;;;;;;;5094616;28;20601;-65
2021/03/31 04:10:43;;;;;;;29.25;20.15;;;;;;;;;;5094957;28;20282;-64
2021/03/31 04:13:11;;;;;;;26.40;17.45;;;;;;;;;;5094093;28;20233;-64
2021/03/31 04:15:38;;;;;;;30.35;18.60;;;;;;;;;;5093969;28;20250;-66
2021/03/31 04:18:05;;;;;;;25.98;17.33;;;;;;;;;;5094119;28;20198;-64
2021/03/31 04:20:33;;;;;;;30.90;17.77;;;;;;;;;;5094335;28;20285;-65
2021/03/31 04:23:01;;;;;;;27.45;18.55;;;;;;;;;;5093880;28;20241;-64
2021/03/31 04:25:28;;;;;;;32.53;19.42;;;;;;;;;;5093757;28;20238;-65
2021/03/31 04:27:57;;;;;;;25.35;17.80;;;;;;;;;;5095024;28;20281;-64
2021/03/31 04:30:25;;;;;;;32.90;17.92;;;;;;;;;;5094246;28;20279;-65
2021/03/31 04:32:52;;;;;;;28.85;16.95;;;;;;;;;;5094072;28;20726;-64
2021/03/31 04:35:20;;;;;;;24.85;17.83;;;;;;;;;;5094494;28;20709;-64
2021/03/31 04:37:47;;;;;;;26.45;19.67;;;;;;;;;;5103616;28;20748;-64
2021/03/31 04:40:15;;;;;;;24.67;18.60;;;;;;;;;;5096932;28;20206;-66
2021/03/31 04:42:41;;;;;;;35.42;17.90;;;;;;;;;;5114253;28;20191;-66
2021/03/31 04:45:10;;;;;;;29.75;18.33;;;;;;;;;;5114641;28;20289;-65
2021/03/31 04:47:38;;;;;;;29.58;17.88;;;;;;;;;;5113881;28;20308;-65
2021/03/31 04:50:05;;;;;;;30.55;18.70;;;;;;;;;;5114204;28;20291;-64
2021/03/31 04:52:32;;;;;;;29.10;18.90;;;;;;;;;;5114174;28;20225;-65
2021/03/31 04:54:59;;;;;;;28.35;19.35;;;;;;;;;;5113832;28;20195;-64
2021/03/31 04:57:26;;;;;;;30.42;18.30;;;;;;;;;;5113703;28;20282;-65
2021/03/31 04:59:52;;;;;;;25.17;17.48;;;;;;;;;;5114638;28;20225;-64
2021/03/31 05:02:20;;;;;;;24.92;16.88;;;;;;;;;;5114042;28;20189;-65
2021/03/31 05:04:47;;;;;;;28.60;17.00;;;;;;;;;;5113730;28;20324;-65
2021/03/31 05:07:13;;;;;;;31.17;19.52;;;;;;;;;;5113787;28;20227;-65
2021/03/31 05:09:40;;;;;;;29.80;18.67;;;;;;;;;;5113961;28;20232;-65
2021/03/31 05:12:08;;;;;;;26.55;18.35;;;;;;;;;;5113654;28;20232;-67
2021/03/31 05:14:35;;;;;;;25.48;17.30;;;;;;;;;;5113920;28;20196;-65
2021/03/31 05:17:01;;;;;;;28.23;17.98;;;;;;;;;;5113913;28;20311;-66
2021/03/31 05:19:29;;;;;;;26.55;18.23;;;;;;;;;;5113574;28;20284;-66
2021/03/31 05:21:56;;;;;;;28.15;16.92;;;;;;;;;;5113908;28;20290;-65
2021/03/31 05:24:22;;;;;;;25.20;17.33;;;;;;;;;;5113897;28;20220;-67
2021/03/31 05:26:49;;;;;;;27.98;15.65;;;;;;;;;;5113753;28;20607;-65
2021/03/31 05:29:18;;;;;;;26.95;16.88;;;;;;;;;;5113777;28;20212;-65
2021/03/31 05:31:45;;;;;;;24.75;17.13;;;;;;;;;;5113470;28;20251;-65
2021/03/31 05:34:12;;;;;;;26.10;16.63;;;;;;;;;;5113395;28;20224;-65
2021/03/31 05:36:39;;;;;;;25.77;17.85;;;;;;;;;;5114187;28;20234;-63
2021/03/31 05:39:06;;;;;;;24.77;16.60;;;;;;;;;;5117769;28;20674;-64
2021/03/31 05:41:33;;;;;;;25.75;17.52;;;;;;;;;;5117717;27;20198;-64
2021/03/31 05:44:01;;;;;;;32.47;17.50;;;;;;;;;;5117235;28;20678;-65
2021/03/31 05:46:28;;;;;;;29.23;16.88;;;;;;;;;;5117901;28;20595;-65
2021/03/31 05:48:55;;;;;;;29.83;17.30;;;;;;;;;;5117585;28;20283;-65
2021/03/31 05:51:22;;;;;;;26.27;16.98;;;;;;;;;;5117152;28;20293;-65
2021/03/31 05:53:49;;;;;;;21.85;15.18;;;;;;;;;;5117501;27;20225;-65
2021/03/31 05:56:17;;;;;;;24.83;16.63;;;;;;;;;;5117349;28;20309;-65
2021/03/31 05:58:44;;;;;;;29.00;17.05;;;;;;;;;;5117130;28;20284;-68
2021/03/31 06:01:11;;;;;;;20.20;15.60;;;;;;;;;;5117282;28;20304;-63
2021/03/31 06:03:37;;;;;;;22.85;16.15;;;;;;;;;;5116973;28;20236;-64
2021/03/31 06:06:04;;;;;;;22.77;17.05;;;;;;;;;;5117778;28;20193;-63
2021/03/31 06:08:31;;;;;;;20.95;16.15;;;;;;;;;;5117247;28;20240;-63
2021/03/31 06:10:59;;;;;;;20.48;15.57;;;;;;;;;;5117376;28;20232;-65
2021/03/31 06:13:27;;;;;;;25.17;16.02;;;;;;;;;;5116745;27;20232;-62
2021/03/31 06:15:54;;;;;;;23.90;15.55;;;;;;;;;;5116986;27;20252;-64
2021/03/31 06:18:21;;;;;;;19.42;14.65;;;;;;;;;;5117015;28;20248;-63
2021/03/31 06:20:51;;;;;;;25.40;16.02;;;;;;;;;;5116905;28;20193;-63
2021/03/31 06:23:28;;;;;;;27.85;16.00;;;;;;;;;;5118026;28;20556;-63
2021/03/31 06:25:58;;;;;;;22.25;15.07;;;;;;;;;;5117379;27;20190;-63
2021/03/31 06:28:42;;;;;;;33.63;19.23;;;;;;;;;;5117467;28;20535;-63
2021/03/31 06:31:11;;;;;;;36.60;22.02;;;;;;;;;;5116531;28;20711;-64
2021/03/31 06:33:38;;;;;;;30.42;19.38;;;;;;;;;;5116676;28;20201;-63
2021/03/31 06:36:06;;;;;;;23.77;16.20;;;;;;;;;;5116275;28;20301;-63
2021/03/31 06:38:33;;;;;;;23.15;14.77;;;;;;;;;;5116650;28;20689;-64
2021/03/31 06:41:11;;;;;;;17.52;13.48;;;;;;;;;;5116920;28;20640;-64
2021/03/31 06:43:43;;;;;;;22.33;14.95;;;;;;;;;;5116271;28;20194;-64
2021/03/31 06:46:21;;;;;;;20.77;13.65;;;;;;;;;;5116205;28;20642;-63
2021/03/31 06:48:51;;;;;;;24.00;13.93;;;;;;;;;;5115503;28;20182;-64
2021/03/31 06:51:24;;;;;;;23.20;14.40;;;;;;;;;;5115979;28;20225;-64
2021/03/31 06:53:51;;;;;;;18.58;13.27;;;;;;;;;;5116558;28;20193;-63
2021/03/31 06:56:26;;;;;;;19.38;13.45;;;;;;;;;;5115851;28;20231;-63
2021/03/31 06:58:56;;;;;;;32.50;18.00;;;;;;;;;;5116236;28;20269;-63
2021/03/31 07:01:25;;;;;;;25.30;14.25;;;;;;;;;;5115806;27;20193;-63
2021/03/31 07:03:53;;;;;;;20.75;13.82;;;;;;;;;;5115864;28;20287;-63
2021/03/31 07:06:19;;;;;;;20.77;13.75;;;;;;;;;;5116023;28;20218;-65
2021/03/31 07:08:47;;;;;;;24.00;13.52;;;;;;;;;;5115922;28;20653;-64
2021/03/31 07:11:31;;;;;;;22.25;13.98;;;;;;;;;;5115984;28;20539;-64
2021/03/31 07:13:59;;;;;;;23.58;15.02;;;;;;;;;;5116126;28;20550;-64
2021/03/31 07:16:27;;;;;;;20.52;14.95;;;;;;;;;;5116048;28;20358;-65
2021/03/31 07:18:57;;;;;;;20.10;14.38;;;;;;;;;;5115586;28;20207;-63
2021/03/31 07:21:24;;;;;;;34.13;18.38;;;;;;;;;;5115508;28;20195;-64
2021/03/31 07:23:52;;;;;;;26.25;16.38;;;;;;;;;;5115921;28;20220;-63
2021/03/31 07:26:20;;;;;;;22.60;14.40;;;;;;;;;;5115346;28;20196;-64
2021/03/31 07:28:47;;;;;;;20.17;14.43;;;;;;;;;;5115826;28;20476;-64
2021/03/31 07:31:17;;;;;;;18.90;13.30;;;;;;;;;;5115268;28;20927;-63
2021/03/31 07:33:46;;;;;;;21.92;13.35;;;;;;;;;;5115638;28;20795;-63
2021/03/31 07:36:14;;;;;;;25.55;13.63;;;;;;;;;;5115609;28;20268;-64
2021/03/31 07:38:41;;;;;;;21.63;13.85;;;;;;;;;;5115027;28;20207;-63
2021/03/31 07:41:08;;;;;;;24.17;13.80;;;;;;;;;;5115764;27;20694;-64
2021/03/31 07:43:37;;;;;;;29.77;13.07;;;;;;;;;;5115307;28;20481;-64
2021/03/31 07:46:05;;;;;;;27.80;13.90;;;;;;;;;;5114877;28;20445;-64
2021/03/31 07:48:32;;;;;;;23.53;13.40;;;;;;;;;;5115210;28;20864;-64
2021/03/31 07:51:14;;;;;;;26.63;13.23;;;;;;;;;;5115130;28;20525;-65
2021/03/31 07:53:43;;;;;;;30.93;14.30;;;;;;;;;;5114753;28;20518;-65
2021/03/31 07:56:13;;;;;;;22.07;13.07;;;;;;;;;;5114837;28;20506;-64
2021/03/31 07:58:40;;;;;;;18.50;13.33;;;;;;;;;;5116184;28;20427;-65
2021/03/31 08:01:09;;;;;;;25.27;15.80;;;;;;;;;;5114038;28;20438;-65
2021/03/31 08:03:37;;;;;;;29.57;12.97;;;;;;;;;;5115148;28;20450;-66
2021/03/31 08:06:09;;;;;;;19.00;12.10;;;;;;;;;;5114907;28;20470;-64
2021/03/31 08:08:36;;;;;;;17.47;11.70;;;;;;;;;;5115506;28;20411;-63
2021/03/31 08:11:03;;;;;;;19.03;11.40;;;;;;;;;;5114716;28;20539;-64
2021/03/31 08:13:31;;;;;;;17.17;11.67;;;;;;;;;;5115056;28;20457;-65
2021/03/31 08:15:59;;;;;;;17.17;11.73;;;;;;;;;;5114752;28;20510;-64
2021/03/31 08:18:27;;;;;;;21.73;11.00;;;;;;;;;;5114837;28;20442;-64
2021/03/31 08:20:54;;;;;;;19.53;10.20;;;;;;;;;;5114725;28;20524;-64
2021/03/31 08:23:40;;;;;;;17.70;11.30;;;;;;;;;;5114666;27;20477;-65
2021/03/31 08:26:21;;;;;;;15.77;10.37;;;;;;;;;;5115914;28;20474;-64
2021/03/31 08:28:49;;;;;;;15.40;9.77;;;;;;;;;;5114384;28;20474;-64
2021/03/31 08:31:19;;;;;;;17.10;9.60;;;;;;;;;;5114014;28;20434;-64
2021/03/31 08:33:46;;;;;;;14.17;10.20;;;;;;;;;;5114625;28;20826;-65
2021/03/31 08:36:13;;;;;;;20.00;11.10;;;;;;;;;;5114506;28;20509;-64
2021/03/31 08:38:40;;;;;;;14.63;9.93;;;;;;;;;;5114389;28;20443;-64
2021/03/31 08:41:16;;;;;;;18.57;11.07;;;;;;;;;;5114542;28;20525;-64
2021/03/31 08:43:44;;;;;;;25.63;12.63;;;;;;;;;;5114383;28;20473;-64
2021/03/31 08:46:12;;;;;;;21.20;11.80;;;;;;;;;;5114177;28;20454;-64
2021/03/31 08:48:40;;;;;;;17.30;9.97;;;;;;;;;;5113888;28;20439;-64
2021/03/31 08:51:08;;;;;;;14.30;10.37;;;;;;;;;;5114026;28;20434;-63
2021/03/31 08:53:35;;;;;;;19.43;13.03;;;;;;;;;;5113656;28;20447;-64
2021/03/31 08:56:03;;;;;;;20.13;12.10;;;;;;;;;;5113820;28;20506;-63
2021/03/31 08:58:30;;;;;;;18.47;11.27;;;;;;;;;;5113633;28;20431;-64
2021/03/31 09:00:59;;;;;;;13.63;11.10;;;;;;;;;;5113855;28;20949;-63
2021/03/31 09:03:32;;;;;;;17.20;11.80;;;;;;;;;;5113956;28;20511;-65
2021/03/31 09:06:01;;;;;;;20.47;11.90;;;;;;;;;;5113438;28;20486;-64
2021/03/31 09:08:29;;;;;;;20.37;10.80;;;;;;;;;;5113509;28;20435;-65
2021/03/31 09:10:57;;;;;;;14.47;10.83;;;;;;;;;;5114199;28;20454;-64
2021/03/31 09:13:27;;;;;;;17.27;11.47;;;;;;;;;;5120625;27;20521;-64
2021/03/31 09:15:54;;;;;;;18.80;11.87;;;;;;;;;;5120365;27;20647;-65
2021/03/31 09:18:21;;;;;;;17.07;12.27;;;;;;;;;;5120075;27;20530;-64
2021/03/31 09:20:49;;;;;;;17.50;11.27;;;;;;;;;;5120667;27;20856;-65
2021/03/31 09:23:20;;;;;;;18.17;11.50;;;;;;;;;;5120276;27;20439;-64
2021/03/31 09:25:53;;;;;;;17.57;12.00;;;;;;;;;;5120596;27;20458;-63
2021/03/31 09:28:20;;;;;;;21.87;10.80;;;;;;;;;;5121272;27;20443;-64
2021/03/31 09:30:51;;;;;;;19.73;12.50;;;;;;;;;;5120131;27;20582;-63
2021/03/31 09:33:25;;;;;;;18.07;12.20;;;;;;;;;;5120673;27;20469;-64
2021/03/31 09:35:53;;;;;;;17.40;11.77;;;;;;;;;;5120306;27;20473;-64
2021/03/31 09:38:26;;;;;;;17.73;11.30;;;;;;;;;;5120378;27;20470;-65
2021/03/31 09:41:02;;;;;;;15.57;11.60;;;;;;;;;;5120367;27;20470;-64
2021/03/31 09:43:30;;;;;;;26.60;12.63;;;;;;;;;;5120317;27;20609;-64
2021/03/31 09:45:57;;;;;;;21.17;11.23;;;;;;;;;;5120895;27;20436;-64
2021/03/31 09:48:24;;;;;;;16.40;11.80;;;;;;;;;;5119886;27;20434;-64
2021/03/31 09:50:52;;;;;;;17.63;11.13;;;;;;;;;;5120225;27;20531;-64
2021/03/31 09:53:22;;;;;;;23.90;12.53;;;;;;;;;;5120127;27;20441;-65
2021/03/31 09:55:49;;;;;;;18.70;12.13;;;;;;;;;;5120098;27;20474;-64
2021/03/31 09:58:16;;;;;;;23.87;12.37;;;;;;;;;;5120544;27;20486;-65
2021/03/31 10:00:43;;;;;;;18.80;12.90;;;;;;;;;;5120641;27;20441;-64
2021/03/31 10:03:10;;;;;;;25.90;13.17;;;;;;;;;;5120028;27;20968;-64
2021/03/31 10:05:37;;;;;;;17.83;11.67;;;;;;;;;;5119762;27;20561;-64
2021/03/31 10:08:06;;;;;;;16.70;12.33;;;;;;;;;;5119969;27;20435;-64
2021/03/31 10:10:40;;;;;;;17.63;12.17;;;;;;;;;;5119664;27;20437;-64
2021/03/31 10:13:07;;;;;;;18.47;12.47;;;;;;;;;;5119916;27;20445;-65
2021/03/31 10:15:34;;;;;;;23.77;13.40;;;;;;;;;;5120101;27;20797;-64
2021/03/31 10:18:00;;;;;;;19.23;12.57;;;;;;;;;;5120033;27;20521;-65
2021/03/31 10:20:30;;;;;;;23.03;13.13;;;;;;;;;;5119671;27;20481;-64
2021/03/31 10:22:57;;;;;;;16.40;11.73;;;;;;;;;;5117541;27;20439;-65
2021/03/31 10:25:25;;;;;;;24.70;13.30;;;;;;;;;;5116631;28;20940;-65
2021/03/31 10:28:01;;;;;;;18.20;12.57;;;;;;;;;;5116596;28;20450;-65
2021/03/31 10:30:29;;;;;;;20.73;12.20;;;;;;;;;;5116879;28;20451;-64
2021/03/31 10:32:57;;;;;;;17.13;11.90;;;;;;;;;;5116310;28;20488;-65
2021/03/31 10:35:47;;;;;;;16.23;11.87;;;;;;;;;;5116420;28;20522;-64
2021/03/31 10:38:25;;;;;;;16.43;12.97;;;;;;;;;;5116739;28;20431;-64
2021/03/31 10:47:07;;;;;;;15.70;11.77;;;;;;;;;;5073241;28;20421;-65
2021/03/31 10:49:39;;;;;;;21.20;13.03;;;;;;;;;;5073176;28;20461;-65
2021/03/31 10:52:08;;;;;;;18.20;12.87;;;;;;;;;;5097728;28;20779;-65
2021/03/31 10:54:35;;;;;;;23.10;13.07;;;;;;;;;;5115680;28;20924;-65
2021/03/31 10:57:09;;;;;;;24.57;13.60;;;;;;;;;;5116023;28;20531;-65
2021/03/31 10:59:37;;;;;;;21.97;12.87;;;;;;;;;;5115922;28;20437;-65
2021/03/31 11:02:05;;;;;;;19.97;12.50;;;;;;;;;;5116009;28;20472;-65
2021/03/31 11:04:31;;;;;;;22.67;14.47;;;;;;;;;;5115664;28;20460;-65
2021/03/31 11:06:58;;;;;;;20.90;13.90;;;;;;;;;;5115822;28;20855;-65
2021/03/31 11:09:25;;;;;;;20.90;13.57;;;;;;;;;;5115249;28;20645;-65
2021/03/31 11:11:52;;;;;;;21.27;12.70;;;;;;;;;;5115613;28;20998;-63
2021/03/31 11:14:19;;;;;;;17.83;13.17;;;;;;;;;;5115826;28;20535;-64
2021/03/31 11:16:51;;;;;;;18.33;13.80;;;;;;;;;;5115912;28;20530;-65
2021/03/31 11:19:29;;;;;;;18.03;13.17;;;;;;;;;;5116576;28;20799;-66
2021/03/31 11:27:28;;;;;;;20.90;14.97;;;;;;;;;;5115959;28;20475;-64
2021/03/31 11:29:55;;;;;;;16.70;14.03;;;;;;;;;;5115114;28;20477;-64
2021/03/31 11:32:24;;;;;;;18.70;14.23;;;;;;;;;;5115238;28;20476;-65
2021/03/31 11:34:51;;;;;;;18.83;12.97;;;;;;;;;;5115023;28;20465;-65
2021/03/31 11:37:18;;;;;;;20.93;14.17;;;;;;;;;;5115048;28;20997;-66
2021/03/31 11:39:44;;;;;;;19.50;13.53;;;;;;;;;;5114805;28;20541;-65
2021/03/31 11:42:11;;;;;;;20.50;14.60;;;;;;;;;;5114640;28;20520;-65
2021/03/31 11:44:38;;;;;;;20.53;14.90;;;;;;;;;;5115285;28;20471;-65
2021/03/31 11:47:05;;;;;;;21.50;15.70;;;;;;;;;;5114840;28;20477;-65
2021/03/31 11:49:32;;;;;;;23.93;13.70;;;;;;;;;;5114583;28;20601;-65
2021/03/31 11:51:59;;;;;;;19.57;14.60;;;;;;;;;;5114600;28;20499;-64
2021/03/31 11:54:26;;;;;;;19.97;14.07;;;;;;;;;;5114605;28;20487;-64
2021/03/31 11:56:53;;;;;;;21.27;16.63;;;;;;;;;;5115403;28;20579;-64
2021/03/31 11:59:19;;;;;;;19.23;14.63;;;;;;;;;;5114721;28;20480;-64
2021/03/31 12:01:46;;;;;;;18.83;13.80;;;;;;;;;;5114591;28;20521;-64
2021/03/31 12:04:13;;;;;;;18.77;12.90;;;;;;;;;;5114321;28;20963;-64
2021/03/31 12:06:40;;;;;;;24.77;13.93;;;;;;;;;;5114632;28;20461;-65
2021/03/31 12:09:09;;;;;;;20.97;14.40;;;;;;;;;;5114218;28;20438;-65
2021/03/31 12:11:36;;;;;;;20.93;15.93;;;;;;;;;;5114638;28;20450;-66
2021/03/31 12:14:03;;;;;;;26.20;15.57;;;;;;;;;;5114533;28;20453;-66
2021/03/31 12:16:30;;;;;;;21.70;14.93;;;;;;;;;;5114054;28;20572;-65
2021/03/31 12:18:56;;;;;;;18.53;13.87;;;;;;;;;;5114154;28;20471;-65
2021/03/31 12:21:23;;;;;;;22.07;17.53;;;;;;;;;;5114491;28;20435;-65
2021/03/31 12:23:51;;;;;;;20.83;14.77;;;;;;;;;;5114306;28;20485;-65
2021/03/31 12:26:19;;;;;;;18.10;14.40;;;;;;;;;;5113943;28;20442;-65
2021/03/31 12:28:50;;;;;;;21.87;14.80;;;;;;;;;;5114049;28;20533;-65
2021/03/31 12:31:17;;;;;;;19.50;14.67;;;;;;;;;;5106325;28;20450;-65
2021/03/31 12:33:43;;;;;;;21.30;15.77;;;;;;;;;;5098008;28;20533;-65
2021/03/31 12:36:10;;;;;;;21.30;15.57;;;;;;;;;;5093412;28;20569;-65
2021/03/31 12:38:37;;;;;;;18.50;15.90;;;;;;;;;;5102242;28;20446;-66
2021/03/31 12:41:04;;;;;;;23.57;15.60;;;;;;;;;;5113977;28;20995;-66
2021/03/31 12:43:31;;;;;;;19.67;15.70;;;;;;;;;;5113853;28;20449;-66
2021/03/31 12:45:58;;;;;;;21.97;16.00;;;;;;;;;;5113298;28;20442;-65
2021/03/31 12:48:25;;;;;;;22.10;15.80;;;;;;;;;;5113630;28;20487;-65
2021/03/31 12:50:56;;;;;;;18.17;14.30;;;;;;;;;;5113966;28;20471;-66
2021/03/31 12:53:26;;;;;;;22.57;16.17;;;;;;;;;;5114532;28;20459;-65
2021/03/31 12:55:54;;;;;;;23.63;16.37;;;;;;;;;;5113347;28;20430;-65
2021/03/31 12:58:23;;;;;;;19.07;15.17;;;;;;;;;;5113234;28;20450;-65
2021/03/31 13:00:52;;;;;;;17.80;14.03;;;;;;;;;;5113182;28;20529;-65
2021/03/31 13:03:18;;;;;;;20.00;14.23;;;;;;;;;;5113848;28;20439;-65
2021/03/31 13:05:45;;;;;;;21.47;14.23;;;;;;;;;;5113229;28;20561;-66
2021/03/31 13:08:14;;;;;;;19.37;15.40;;;;;;;;;;5113685;28;20492;-65
2021/03/31 13:10:42;;;;;;;22.70;15.67;;;;;;;;;;5113671;28;20446;-66
2021/03/31 13:13:13;;;;;;;22.20;17.13;;;;;;;;;;5113329;28;20446;-63
2021/03/31 13:15:43;;;;;;;17.33;14.50;;;;;;;;;;5113437;28;20427;-65
2021/03/31 13:21:58;;;;;;;15.20;13.50;;;;;;;;;;5112911;28;20479;-64
2021/03/31 13:27:07;;;;;;;16.63;13.77;;;;;;;;;;5070372;28;20424;-64
2021/03/31 13:29:53;;;;;;;20.27;15.10;;;;;;;;;;5070083;28;20436;-65
2021/03/31 13:32:23;;;;;;;15.67;12.63;;;;;;;;;;5099791;28;20939;-65
2021/03/31 13:34:53;;;;;;;23.70;16.73;;;;;;;;;;5113652;28;20427;-66
2021/03/31 13:37:23;;;;;;;15.73;14.03;;;;;;;;;;5113013;28;20501;-67
2021/03/31 13:39:51;;;;;;;24.53;14.37;;;;;;;;;;5113239;28;20441;-67
2021/03/31 13:42:17;;;;;;;20.60;14.13;;;;;;;;;;5113553;28;20443;-67
2021/03/31 13:44:45;;;;;;;18.20;12.77;;;;;;;;;;5113587;28;20530;-67
2021/03/31 13:47:16;;;;;;;18.50;12.93;;;;;;;;;;5112968;28;20453;-67
2021/03/31 13:49:50;;;;;;;12.97;10.90;;;;;;;;;;5113617;28;20511;-67
2021/03/31 13:52:19;;;;;;;19.70;12.50;;;;;;;;;;5113558;28;20429;-67
2021/03/31 13:54:48;;;;;;;13.63;10.93;;;;;;;;;;5113307;28;20431;-67
2021/03/31 13:57:18;;;;;;;15.57;11.33;;;;;;;;;;5112337;28;20482;-67
2021/03/31 13:59:45;;;;;;;15.77;10.90;;;;;;;;;;5115132;28;20534;-67
2021/03/31 14:02:12;;;;;;;13.87;11.37;;;;;;;;;;5116329;28;20447;-67
2021/03/31 14:04:38;;;;;;;18.33;11.63;;;;;;;;;;5116289;28;20466;-67
2021/03/31 14:07:06;;;;;;;14.90;12.10;;;;;;;;;;5116490;28;20550;-67
2021/03/31 14:09:34;;;;;;;15.67;11.70;;;;;;;;;;5116381;28;20479;-67
2021/03/31 14:12:01;;;;;;;16.70;12.33;;;;;;;;;;5116377;28;20537;-68
2021/03/31 14:14:28;;;;;;;15.40;11.23;;;;;;;;;;5116287;28;20869;-66
2021/03/31 14:16:59;;;;;;;13.10;11.57;;;;;;;;;;5116133;28;20514;-67
2021/03/31 14:19:28;;;;;;;13.50;10.10;;;;;;;;;;5116726;28;20450;-68
2021/03/31 14:21:55;;;;;;;12.80;10.20;;;;;;;;;;5116516;28;20566;-67
2021/03/31 14:24:22;;;;;;;12.20;9.77;;;;;;;;;;5115903;28;20451;-67
2021/03/31 14:26:49;;;;;;;17.30;10.67;;;;;;;;;;5115932;28;21009;-67
2021/03/31 14:29:16;;;;;;;18.63;10.60;;;;;;;;;;5116107;28;20447;-68
2021/03/31 14:31:43;;;;;;;17.40;11.87;;;;;;;;;;5115691;28;20478;-67
2021/03/31 14:34:10;;;;;;;13.67;11.50;;;;;;;;;;5115907;28;20448;-67
2021/03/31 14:36:36;;;;;;;16.87;12.33;;;;;;;;;;5116008;27;20940;-67
2021/03/31 14:39:04;;;;;;;17.80;12.70;;;;;;;;;;5116306;28;20439;-68
2021/03/31 14:41:32;;;;;;;13.23;11.83;;;;;;;;;;5116588;28;20484;-68